sensor_id;sensor_type;location;lat;lon;timestamp;P1;durP1;ratioP1;P2;durP2;ratioP2
8694;SDS011;65580;49.446;6.854;2023-08-20T00:00:06;11.52;;;6.15;;
8694;SDS011;65580;49.446;6.854;2023-08-20T00:04:10;10.88;;;5.70;;
8694;SDS011;65580;49.446;6.854;2023-08-20T00:08:13;14.23;;;6.13;;
8694;SDS011;65580;49.446;6.854;2023-08-20T00:12:18;20.38;;;9.55;;
8694;SDS011;65580;49.446;6.854;2023-08-20T00:16:21;11.60;;;5.88;;
8694;SDS011;65580;49.446;6.854;2023-08-20T00:20:24;11.90;;;6.88;;
8694;SDS011;65580;49.446;6.854;2023-08-20T00:24:27;17.00;;;5.88;;
8694;SDS011;65580;49.446;6.854;2023-08-20T00:28:32;14.93;;;7.00;;
8694;SDS011;65580;49.446;6.854;2023-08-20T00:32:36;17.13;;;7.30;;
8694;SDS011;65580;49.446;6.854;2023-08-20T00:36:38;15.13;;;6.43;;
8694;SDS011;65580;49.446;6.854;2023-08-20T00:40:42;22.08;;;10.27;;
8694;SDS011;65580;49.446;6.854;2023-08-20T00:44:46;11.82;;;5.90;;
8694;SDS011;65580;49.446;6.854;2023-08-20T00:48:49;9.05;;;5.82;;
8694;SDS011;65580;49.446;6.854;2023-08-20T00:52:52;12.80;;;6.22;;
8694;SDS011;65580;49.446;6.854;2023-08-20T00:56:55;11.20;;;5.53;;
8694;SDS011;65580;49.446;6.854;2023-08-20T01:00:59;11.50;;;4.82;;
8694;SDS011;65580;49.446;6.854;2023-08-20T01:05:03;14.57;;;5.32;;
8694;SDS011;65580;49.446;6.854;2023-08-20T01:09:10;10.75;;;5.15;;
8694;SDS011;65580;49.446;6.854;2023-08-20T01:13:20;11.82;;;5.60;;
8694;SDS011;65580;49.446;6.854;2023-08-20T01:17:25;30.02;;;12.48;;
8694;SDS011;65580;49.446;6.854;2023-08-20T01:21:30;15.77;;;6.60;;
8694;SDS011;65580;49.446;6.854;2023-08-20T01:25:46;9.07;;;5.78;;
8694;SDS011;65580;49.446;6.854;2023-08-20T01:29:57;19.60;;;6.38;;
8694;SDS011;65580;49.446;6.854;2023-08-20T01:34:01;14.75;;;7.75;;
8694;SDS011;65580;49.446;6.854;2023-08-20T01:38:04;13.32;;;6.53;;
8694;SDS011;65580;49.446;6.854;2023-08-20T01:42:08;19.63;;;8.75;;
8694;SDS011;65580;49.446;6.854;2023-08-20T01:46:12;16.52;;;7.88;;
8694;SDS011;65580;49.446;6.854;2023-08-20T01:50:15;16.55;;;6.22;;
8694;SDS011;65580;49.446;6.854;2023-08-20T01:54:18;9.60;;;5.63;;
8694;SDS011;65580;49.446;6.854;2023-08-20T01:58:22;15.75;;;7.18;;
8694;SDS011;65580;49.446;6.854;2023-08-20T02:02:27;9.68;;;5.78;;
8694;SDS011;65580;49.446;6.854;2023-08-20T02:06:30;15.25;;;5.90;;
8694;SDS011;65580;49.446;6.854;2023-08-20T02:10:33;9.95;;;5.30;;
8694;SDS011;65580;49.446;6.854;2023-08-20T02:14:36;12.25;;;6.03;;
8694;SDS011;65580;49.446;6.854;2023-08-20T02:18:40;9.10;;;4.50;;
8694;SDS011;65580;49.446;6.854;2023-08-20T02:22:43;10.43;;;4.80;;
8694;SDS011;65580;49.446;6.854;2023-08-20T02:26:46;16.95;;;7.60;;
8694;SDS011;65580;49.446;6.854;2023-08-20T02:30:49;9.40;;;5.28;;
8694;SDS011;65580;49.446;6.854;2023-08-20T02:34:54;13.15;;;6.07;;
8694;SDS011;65580;49.446;6.854;2023-08-20T02:38:57;8.25;;;5.40;;
8694;SDS011;65580;49.446;6.854;2023-08-20T02:43:00;9.55;;;4.40;;
8694;SDS011;65580;49.446;6.854;2023-08-20T02:51:07;10.77;;;5.35;;
8694;SDS011;65580;49.446;6.854;2023-08-20T02:55:11;14.45;;;6.97;;
8694;SDS011;65580;49.446;6.854;2023-08-20T02:59:13;35.15;;;12.95;;
8694;SDS011;65580;49.446;6.854;2023-08-20T03:03:17;12.40;;;5.68;;
8694;SDS011;65580;49.446;6.854;2023-08-20T03:07:21;11.95;;;5.60;;
8694;SDS011;65580;49.446;6.854;2023-08-20T03:11:24;17.40;;;6.45;;
8694;SDS011;65580;49.446;6.854;2023-08-20T03:15:27;21.55;;;6.45;;
8694;SDS011;65580;49.446;6.854;2023-08-20T03:19:33;12.20;;;6.43;;
8694;SDS011;65580;49.446;6.854;2023-08-20T03:23:39;12.50;;;5.90;;
8694;SDS011;65580;49.446;6.854;2023-08-20T03:27:42;9.88;;;4.88;;
8694;SDS011;65580;49.446;6.854;2023-08-20T03:31:45;11.35;;;5.53;;
8694;SDS011;65580;49.446;6.854;2023-08-20T03:39:52;10.75;;;5.10;;
8694;SDS011;65580;49.446;6.854;2023-08-20T03:43:55;6.55;;;4.55;;
8694;SDS011;65580;49.446;6.854;2023-08-20T03:47:58;11.50;;;4.50;;
8694;SDS011;65580;49.446;6.854;2023-08-20T03:52:01;8.93;;;5.50;;
8694;SDS011;65580;49.446;6.854;2023-08-20T03:56:06;13.32;;;5.57;;
8694;SDS011;65580;49.446;6.854;2023-08-20T04:00:10;6.68;;;4.22;;
8694;SDS011;65580;49.446;6.854;2023-08-20T04:04:14;8.10;;;4.10;;
8694;SDS011;65580;49.446;6.854;2023-08-20T04:08:17;9.75;;;4.97;;
8694;SDS011;65580;49.446;6.854;2023-08-20T04:12:21;15.90;;;5.47;;
8694;SDS011;65580;49.446;6.854;2023-08-20T04:16:24;5.32;;;3.08;;
8694;SDS011;65580;49.446;6.854;2023-08-20T04:24:30;9.52;;;4.53;;
8694;SDS011;65580;49.446;6.854;2023-08-20T04:28:34;12.88;;;4.43;;
8694;SDS011;65580;49.446;6.854;2023-08-20T04:32:37;10.52;;;4.20;;
8694;SDS011;65580;49.446;6.854;2023-08-20T04:36:40;28.27;;;7.10;;
8694;SDS011;65580;49.446;6.854;2023-08-20T04:40:45;8.48;;;4.07;;
8694;SDS011;65580;49.446;6.854;2023-08-20T04:44:49;15.60;;;7.30;;
8694;SDS011;65580;49.446;6.854;2023-08-20T04:48:52;13.63;;;4.78;;
8694;SDS011;65580;49.446;6.854;2023-08-20T04:52:55;6.88;;;4.18;;
8694;SDS011;65580;49.446;6.854;2023-08-20T04:57:01;15.88;;;5.40;;
8694;SDS011;65580;49.446;6.854;2023-08-20T05:01:05;14.68;;;5.55;;
8694;SDS011;65580;49.446;6.854;2023-08-20T05:05:10;6.50;;;4.15;;
8694;SDS011;65580;49.446;6.854;2023-08-20T05:09:13;13.02;;;5.10;;
8694;SDS011;65580;49.446;6.854;2023-08-20T05:13:17;8.15;;;4.40;;
8694;SDS011;65580;49.446;6.854;2023-08-20T05:17:22;15.77;;;6.07;;
8694;SDS011;65580;49.446;6.854;2023-08-20T05:21:25;12.85;;;5.35;;
8694;SDS011;65580;49.446;6.854;2023-08-20T05:25:28;9.77;;;5.20;;
8694;SDS011;65580;49.446;6.854;2023-08-20T05:29:31;8.15;;;4.13;;
8694;SDS011;65580;49.446;6.854;2023-08-20T05:33:36;10.65;;;4.80;;
8694;SDS011;65580;49.446;6.854;2023-08-20T05:37:39;14.15;;;4.72;;
8694;SDS011;65580;49.446;6.854;2023-08-20T05:41:41;13.75;;;5.20;;
8694;SDS011;65580;49.446;6.854;2023-08-20T05:45:44;8.57;;;4.38;;
8694;SDS011;65580;49.446;6.854;2023-08-20T05:49:48;9.38;;;4.18;;
8694;SDS011;65580;49.446;6.854;2023-08-20T05:53:51;9.23;;;4.35;;
8694;SDS011;65580;49.446;6.854;2023-08-20T05:57:54;7.35;;;4.03;;
8694;SDS011;65580;49.446;6.854;2023-08-20T06:06:01;8.32;;;4.03;;
8694;SDS011;65580;49.446;6.854;2023-08-20T06:10:08;7.10;;;4.13;;
8694;SDS011;65580;49.446;6.854;2023-08-20T06:14:12;7.40;;;3.47;;
8694;SDS011;65580;49.446;6.854;2023-08-20T06:18:15;6.93;;;3.05;;
8694;SDS011;65580;49.446;6.854;2023-08-20T06:22:20;8.18;;;3.60;;
8694;SDS011;65580;49.446;6.854;2023-08-20T06:26:22;9.82;;;3.08;;
8694;SDS011;65580;49.446;6.854;2023-08-20T06:30:25;6.18;;;2.80;;
8694;SDS011;65580;49.446;6.854;2023-08-20T06:34:28;7.50;;;3.50;;
8694;SDS011;65580;49.446;6.854;2023-08-20T06:38:32;7.93;;;2.60;;
8694;SDS011;65580;49.446;6.854;2023-08-20T06:42:35;7.15;;;2.78;;
8694;SDS011;65580;49.446;6.854;2023-08-20T06:46:41;4.70;;;2.83;;
8694;SDS011;65580;49.446;6.854;2023-08-20T06:50:44;5.47;;;2.65;;
8694;SDS011;65580;49.446;6.854;2023-08-20T06:54:48;6.28;;;2.30;;
8694;SDS011;65580;49.446;6.854;2023-08-20T06:58:51;8.52;;;2.50;;
8694;SDS011;65580;49.446;6.854;2023-08-20T07:02:54;11.45;;;2.60;;
8694;SDS011;65580;49.446;6.854;2023-08-20T07:06:57;10.45;;;2.55;;
8694;SDS011;65580;49.446;6.854;2023-08-20T07:11:01;7.25;;;2.90;;
8694;SDS011;65580;49.446;6.854;2023-08-20T07:15:05;8.55;;;3.03;;
8694;SDS011;65580;49.446;6.854;2023-08-20T07:19:08;7.18;;;2.80;;
8694;SDS011;65580;49.446;6.854;2023-08-20T07:23:11;5.82;;;2.92;;
8694;SDS011;65580;49.446;6.854;2023-08-20T07:27:15;8.55;;;2.65;;
8694;SDS011;65580;49.446;6.854;2023-08-20T07:31:18;7.30;;;3.00;;
8694;SDS011;65580;49.446;6.854;2023-08-20T07:35:21;6.05;;;2.90;;
8694;SDS011;65580;49.446;6.854;2023-08-20T07:39:25;8.45;;;2.83;;
8694;SDS011;65580;49.446;6.854;2023-08-20T07:43:29;11.07;;;3.20;;
8694;SDS011;65580;49.446;6.854;2023-08-20T07:47:32;6.20;;;2.88;;
8694;SDS011;65580;49.446;6.854;2023-08-20T07:51:35;5.43;;;2.58;;
8694;SDS011;65580;49.446;6.854;2023-08-20T07:55:38;5.30;;;2.72;;
8694;SDS011;65580;49.446;6.854;2023-08-20T07:59:42;5.00;;;2.50;;
8694;SDS011;65580;49.446;6.854;2023-08-20T08:03:45;6.82;;;2.85;;
8694;SDS011;65580;49.446;6.854;2023-08-20T08:07:48;7.15;;;2.85;;
8694;SDS011;65580;49.446;6.854;2023-08-20T08:11:51;6.00;;;2.63;;
8694;SDS011;65580;49.446;6.854;2023-08-20T08:15:55;5.43;;;2.65;;
8694;SDS011;65580;49.446;6.854;2023-08-20T08:19:59;5.32;;;2.50;;
8694;SDS011;65580;49.446;6.854;2023-08-20T08:24:02;5.95;;;2.33;;
8694;SDS011;65580;49.446;6.854;2023-08-20T08:28:06;8.10;;;2.35;;
8694;SDS011;65580;49.446;6.854;2023-08-20T08:32:12;4.95;;;2.08;;
8694;SDS011;65580;49.446;6.854;2023-08-20T08:36:24;6.05;;;2.33;;
8694;SDS011;65580;49.446;6.854;2023-08-20T08:40:28;5.55;;;2.08;;
8694;SDS011;65580;49.446;6.854;2023-08-20T08:44:31;5.00;;;2.28;;
8694;SDS011;65580;49.446;6.854;2023-08-20T08:48:36;4.50;;;2.05;;
8694;SDS011;65580;49.446;6.854;2023-08-20T08:52:39;4.82;;;1.73;;
8694;SDS011;65580;49.446;6.854;2023-08-20T08:56:43;3.88;;;1.60;;
8694;SDS011;65580;49.446;6.854;2023-08-20T09:00:46;4.85;;;1.83;;
8694;SDS011;65580;49.446;6.854;2023-08-20T09:04:52;8.15;;;1.85;;
8694;SDS011;65580;49.446;6.854;2023-08-20T09:09:02;5.15;;;2.15;;
8694;SDS011;65580;49.446;6.854;2023-08-20T09:13:06;2.42;;;1.42;;
8694;SDS011;65580;49.446;6.854;2023-08-20T09:17:09;5.47;;;1.40;;
8694;SDS011;65580;49.446;6.854;2023-08-20T09:21:15;1.95;;;1.30;;
8694;SDS011;65580;49.446;6.854;2023-08-20T09:25:18;2.90;;;1.80;;
8694;SDS011;65580;49.446;6.854;2023-08-20T09:29:22;4.57;;;1.40;;
8694;SDS011;65580;49.446;6.854;2023-08-20T09:33:26;3.42;;;1.40;;
8694;SDS011;65580;49.446;6.854;2023-08-20T09:37:31;3.80;;;1.70;;
8694;SDS011;65580;49.446;6.854;2023-08-20T09:41:35;2.22;;;1.40;;
8694;SDS011;65580;49.446;6.854;2023-08-20T09:45:39;6.13;;;1.63;;
8694;SDS011;65580;49.446;6.854;2023-08-20T09:49:43;5.38;;;1.52;;
8694;SDS011;65580;49.446;6.854;2023-08-20T09:53:51;3.53;;;1.80;;
8694;SDS011;65580;49.446;6.854;2023-08-20T09:58:00;7.70;;;1.60;;
8694;SDS011;65580;49.446;6.854;2023-08-20T10:02:04;4.43;;;1.73;;
8694;SDS011;65580;49.446;6.854;2023-08-20T10:06:07;2.63;;;1.63;;
8694;SDS011;65580;49.446;6.854;2023-08-20T10:10:12;3.42;;;1.58;;
8694;SDS011;65580;49.446;6.854;2023-08-20T10:14:16;4.80;;;1.73;;
8694;SDS011;65580;49.446;6.854;2023-08-20T10:18:19;1.85;;;1.25;;
8694;SDS011;65580;49.446;6.854;2023-08-20T10:22:25;2.15;;;1.20;;
8694;SDS011;65580;49.446;6.854;2023-08-20T10:26:36;3.50;;;1.40;;
8694;SDS011;65580;49.446;6.854;2023-08-20T10:35:08;4.55;;;1.60;;
8694;SDS011;65580;49.446;6.854;2023-08-20T10:39:21;3.88;;;1.42;;
8694;SDS011;65580;49.446;6.854;2023-08-20T10:43:34;7.22;;;1.60;;
8694;SDS011;65580;49.446;6.854;2023-08-20T10:47:42;2.40;;;1.40;;
8694;SDS011;65580;49.446;6.854;2023-08-20T10:51:51;2.47;;;1.50;;
8694;SDS011;65580;49.446;6.854;2023-08-20T10:56:06;1.98;;;1.30;;
8694;SDS011;65580;49.446;6.854;2023-08-20T11:00:15;2.53;;;1.20;;
8694;SDS011;65580;49.446;6.854;2023-08-20T11:04:19;4.35;;;1.80;;
8694;SDS011;65580;49.446;6.854;2023-08-20T11:08:23;3.60;;;1.30;;
8694;SDS011;65580;49.446;6.854;2023-08-20T11:12:35;2.15;;;1.30;;
8694;SDS011;65580;49.446;6.854;2023-08-20T11:16:43;3.35;;;1.33;;
8694;SDS011;65580;49.446;6.854;2023-08-20T11:20:47;4.72;;;1.40;;
8694;SDS011;65580;49.446;6.854;2023-08-20T11:24:50;3.58;;;1.40;;
8694;SDS011;65580;49.446;6.854;2023-08-20T11:28:53;4.45;;;1.70;;
8694;SDS011;65580;49.446;6.854;2023-08-20T11:32:58;3.58;;;1.48;;
8694;SDS011;65580;49.446;6.854;2023-08-20T11:37:01;3.38;;;1.45;;
8694;SDS011;65580;49.446;6.854;2023-08-20T11:41:05;19.00;;;4.75;;
8694;SDS011;65580;49.446;6.854;2023-08-20T11:45:09;5.25;;;1.35;;
8694;SDS011;65580;49.446;6.854;2023-08-20T11:49:14;4.10;;;1.38;;
8694;SDS011;65580;49.446;6.854;2023-08-20T11:53:20;5.47;;;1.60;;
8694;SDS011;65580;49.446;6.854;2023-08-20T11:57:24;2.25;;;1.50;;
8694;SDS011;65580;49.446;6.854;2023-08-20T12:01:29;2.65;;;1.30;;
8694;SDS011;65580;49.446;6.854;2023-08-20T12:05:34;2.42;;;1.20;;
8694;SDS011;65580;49.446;6.854;2023-08-20T12:09:37;4.07;;;1.30;;
8694;SDS011;65580;49.446;6.854;2023-08-20T12:13:40;2.95;;;1.40;;
8694;SDS011;65580;49.446;6.854;2023-08-20T12:17:43;4.60;;;1.50;;
8694;SDS011;65580;49.446;6.854;2023-08-20T12:21:48;5.72;;;1.60;;
8694;SDS011;65580;49.446;6.854;2023-08-20T12:25:51;1.88;;;1.13;;
8694;SDS011;65580;49.446;6.854;2023-08-20T12:29:54;1.95;;;1.20;;
8694;SDS011;65580;49.446;6.854;2023-08-20T12:33:57;3.47;;;1.42;;
8694;SDS011;65580;49.446;6.854;2023-08-20T12:38:02;3.63;;;1.30;;
8694;SDS011;65580;49.446;6.854;2023-08-20T12:42:05;3.80;;;1.20;;
8694;SDS011;65580;49.446;6.854;2023-08-20T12:46:09;5.13;;;1.35;;
8694;SDS011;65580;49.446;6.854;2023-08-20T12:50:13;5.32;;;1.30;;
8694;SDS011;65580;49.446;6.854;2023-08-20T12:54:17;5.18;;;1.42;;
8694;SDS011;65580;49.446;6.854;2023-08-20T12:58:22;2.63;;;1.40;;
8694;SDS011;65580;49.446;6.854;2023-08-20T13:02:26;2.72;;;1.40;;
8694;SDS011;65580;49.446;6.854;2023-08-20T13:06:29;2.45;;;1.40;;
8694;SDS011;65580;49.446;6.854;2023-08-20T13:10:35;3.50;;;1.42;;
8694;SDS011;65580;49.446;6.854;2023-08-20T13:14:39;2.60;;;1.30;;
8694;SDS011;65580;49.446;6.854;2023-08-20T13:18:43;2.83;;;1.58;;
8694;SDS011;65580;49.446;6.854;2023-08-20T13:22:46;3.90;;;1.60;;
8694;SDS011;65580;49.446;6.854;2023-08-20T13:26:50;2.42;;;1.50;;
8694;SDS011;65580;49.446;6.854;2023-08-20T13:30:54;6.45;;;1.70;;
8694;SDS011;65580;49.446;6.854;2023-08-20T13:34:57;2.70;;;1.60;;
8694;SDS011;65580;49.446;6.854;2023-08-20T13:38:59;3.80;;;1.70;;
8694;SDS011;65580;49.446;6.854;2023-08-20T13:43:04;2.83;;;1.75;;
8694;SDS011;65580;49.446;6.854;2023-08-20T13:47:07;2.67;;;1.50;;
8694;SDS011;65580;49.446;6.854;2023-08-20T13:51:10;8.98;;;2.00;;
8694;SDS011;65580;49.446;6.854;2023-08-20T13:55:13;4.38;;;1.50;;
8694;SDS011;65580;49.446;6.854;2023-08-20T13:59:18;4.13;;;1.48;;
8694;SDS011;65580;49.446;6.854;2023-08-20T14:03:21;5.78;;;1.75;;
8694;SDS011;65580;49.446;6.854;2023-08-20T14:07:25;4.07;;;1.70;;
8694;SDS011;65580;49.446;6.854;2023-08-20T14:11:29;3.13;;;1.63;;
8694;SDS011;65580;49.446;6.854;2023-08-20T14:15:33;2.83;;;1.50;;
8694;SDS011;65580;49.446;6.854;2023-08-20T14:19:38;3.65;;;1.58;;
8694;SDS011;65580;49.446;6.854;2023-08-20T14:23:40;4.80;;;1.90;;
8694;SDS011;65580;49.446;6.854;2023-08-20T14:27:43;4.80;;;1.60;;
8694;SDS011;65580;49.446;6.854;2023-08-20T14:31:48;4.95;;;1.50;;
8694;SDS011;65580;49.446;6.854;2023-08-20T14:35:51;3.22;;;1.42;;
8694;SDS011;65580;49.446;6.854;2023-08-20T14:39:54;3.35;;;1.63;;
8694;SDS011;65580;49.446;6.854;2023-08-20T14:43:57;3.58;;;1.65;;
8694;SDS011;65580;49.446;6.854;2023-08-20T14:48:01;3.35;;;1.52;;
8694;SDS011;65580;49.446;6.854;2023-08-20T14:52:04;4.45;;;1.63;;
8694;SDS011;65580;49.446;6.854;2023-08-20T14:56:28;3.47;;;1.40;;
8694;SDS011;65580;49.446;6.854;2023-08-20T15:00:31;4.63;;;1.88;;
8694;SDS011;65580;49.446;6.854;2023-08-20T15:04:35;2.25;;;1.35;;
8694;SDS011;65580;49.446;6.854;2023-08-20T15:08:39;1.88;;;1.50;;
8694;SDS011;65580;49.446;6.854;2023-08-20T15:12:41;4.63;;;1.80;;
8694;SDS011;65580;49.446;6.854;2023-08-20T15:16:45;2.25;;;1.50;;
8694;SDS011;65580;49.446;6.854;2023-08-20T15:20:54;3.22;;;1.60;;
8694;SDS011;65580;49.446;6.854;2023-08-20T15:25:00;3.08;;;1.77;;
8694;SDS011;65580;49.446;6.854;2023-08-20T15:29:04;6.80;;;1.73;;
8694;SDS011;65580;49.446;6.854;2023-08-20T15:33:07;4.63;;;1.73;;
8694;SDS011;65580;49.446;6.854;2023-08-20T15:37:11;5.53;;;1.80;;
8694;SDS011;65580;49.446;6.854;2023-08-20T15:41:15;5.97;;;1.70;;
8694;SDS011;65580;49.446;6.854;2023-08-20T15:45:19;4.03;;;1.60;;
8694;SDS011;65580;49.446;6.854;2023-08-20T15:49:22;4.25;;;1.85;;
8694;SDS011;65580;49.446;6.854;2023-08-20T15:53:28;3.40;;;1.73;;
8694;SDS011;65580;49.446;6.854;2023-08-20T15:57:31;4.30;;;2.05;;
8694;SDS011;65580;49.446;6.854;2023-08-20T16:01:34;4.88;;;1.70;;
8694;SDS011;65580;49.446;6.854;2023-08-20T16:05:38;3.70;;;1.88;;
8694;SDS011;65580;49.446;6.854;2023-08-20T16:09:44;4.28;;;1.65;;
8694;SDS011;65580;49.446;6.854;2023-08-20T16:13:47;4.60;;;1.92;;
8694;SDS011;65580;49.446;6.854;2023-08-20T16:17:51;5.57;;;1.90;;
8694;SDS011;65580;49.446;6.854;2023-08-20T16:21:54;3.80;;;1.85;;
8694;SDS011;65580;49.446;6.854;2023-08-20T16:25:58;4.32;;;1.83;;
8694;SDS011;65580;49.446;6.854;2023-08-20T16:30:03;4.20;;;1.83;;
8694;SDS011;65580;49.446;6.854;2023-08-20T16:34:07;6.82;;;2.10;;
8694;SDS011;65580;49.446;6.854;2023-08-20T16:38:10;5.35;;;1.80;;
8694;SDS011;65580;49.446;6.854;2023-08-20T16:42:14;2.40;;;1.65;;
8694;SDS011;65580;49.446;6.854;2023-08-20T16:46:21;4.57;;;1.70;;
8694;SDS011;65580;49.446;6.854;2023-08-20T16:50:24;3.90;;;1.90;;
8694;SDS011;65580;49.446;6.854;2023-08-20T16:54:27;3.90;;;1.83;;
8694;SDS011;65580;49.446;6.854;2023-08-20T16:58:32;3.03;;;1.70;;
8694;SDS011;65580;49.446;6.854;2023-08-20T17:02:35;3.17;;;1.80;;
8694;SDS011;65580;49.446;6.854;2023-08-20T17:06:38;4.22;;;2.00;;
8694;SDS011;65580;49.446;6.854;2023-08-20T17:10:41;5.15;;;2.35;;
8694;SDS011;65580;49.446;6.854;2023-08-20T17:14:46;4.18;;;2.13;;
8694;SDS011;65580;49.446;6.854;2023-08-20T17:18:49;4.72;;;1.75;;
8694;SDS011;65580;49.446;6.854;2023-08-20T17:22:54;3.78;;;1.80;;
8694;SDS011;65580;49.446;6.854;2023-08-20T17:26:58;10.13;;;2.00;;
8694;SDS011;65580;49.446;6.854;2023-08-20T17:31:03;3.25;;;1.90;;
8694;SDS011;65580;49.446;6.854;2023-08-20T17:35:06;13.02;;;2.28;;
8694;SDS011;65580;49.446;6.854;2023-08-20T17:39:10;4.40;;;1.60;;
8694;SDS011;65580;49.446;6.854;2023-08-20T17:43:13;2.60;;;1.80;;
8694;SDS011;65580;49.446;6.854;2023-08-20T17:47:20;5.85;;;2.20;;
8694;SDS011;65580;49.446;6.854;2023-08-20T17:51:23;4.82;;;1.80;;
8694;SDS011;65580;49.446;6.854;2023-08-20T17:55:26;4.20;;;1.92;;
8694;SDS011;65580;49.446;6.854;2023-08-20T17:59:32;5.15;;;2.20;;
8694;SDS011;65580;49.446;6.854;2023-08-20T18:03:36;5.38;;;2.10;;
8694;SDS011;65580;49.446;6.854;2023-08-20T18:07:39;4.65;;;2.00;;
8694;SDS011;65580;49.446;6.854;2023-08-20T18:11:42;5.57;;;1.90;;
8694;SDS011;65580;49.446;6.854;2023-08-20T18:15:45;5.47;;;1.83;;
8694;SDS011;65580;49.446;6.854;2023-08-20T18:19:50;5.60;;;1.92;;
8694;SDS011;65580;49.446;6.854;2023-08-20T18:23:57;4.38;;;2.13;;
8694;SDS011;65580;49.446;6.854;2023-08-20T18:28:02;6.10;;;2.17;;
8694;SDS011;65580;49.446;6.854;2023-08-20T18:32:06;3.53;;;1.80;;
8694;SDS011;65580;49.446;6.854;2023-08-20T18:36:10;5.50;;;2.00;;
8694;SDS011;65580;49.446;6.854;2023-08-20T18:40:13;2.75;;;1.88;;
8694;SDS011;65580;49.446;6.854;2023-08-20T18:44:17;6.10;;;2.13;;
8694;SDS011;65580;49.446;6.854;2023-08-20T18:48:20;9.30;;;2.50;;
8694;SDS011;65580;49.446;6.854;2023-08-20T18:52:25;8.50;;;2.13;;
8694;SDS011;65580;49.446;6.854;2023-08-20T18:56:28;6.07;;;2.40;;
8694;SDS011;65580;49.446;6.854;2023-08-20T19:00:31;6.05;;;2.22;;
8694;SDS011;65580;49.446;6.854;2023-08-20T19:04:34;6.25;;;2.30;;
8694;SDS011;65580;49.446;6.854;2023-08-20T19:08:39;4.13;;;2.15;;
8694;SDS011;65580;49.446;6.854;2023-08-20T19:12:42;5.65;;;2.00;;
8694;SDS011;65580;49.446;6.854;2023-08-20T19:16:45;12.93;;;2.40;;
8694;SDS011;65580;49.446;6.854;2023-08-20T19:20:49;7.53;;;2.53;;
8694;SDS011;65580;49.446;6.854;2023-08-20T19:24:55;4.80;;;2.20;;
8694;SDS011;65580;49.446;6.854;2023-08-20T19:28:58;8.00;;;2.20;;
8694;SDS011;65580;49.446;6.854;2023-08-20T19:33:02;5.47;;;2.20;;
8694;SDS011;65580;49.446;6.854;2023-08-20T19:37:08;3.53;;;2.40;;
8694;SDS011;65580;49.446;6.854;2023-08-20T19:41:12;3.83;;;2.03;;
8694;SDS011;65580;49.446;6.854;2023-08-20T19:45:15;7.57;;;2.30;;
8694;SDS011;65580;49.446;6.854;2023-08-20T19:49:29;8.63;;;2.42;;
8694;SDS011;65580;49.446;6.854;2023-08-20T19:53:36;9.00;;;2.55;;
8694;SDS011;65580;49.446;6.854;2023-08-20T19:57:46;7.35;;;2.65;;
8694;SDS011;65580;49.446;6.854;2023-08-20T20:01:50;7.40;;;2.55;;
8694;SDS011;65580;49.446;6.854;2023-08-20T20:06:01;12.93;;;4.05;;
8694;SDS011;65580;49.446;6.854;2023-08-20T20:14:15;6.63;;;2.33;;
8694;SDS011;65580;49.446;6.854;2023-08-20T20:18:22;10.27;;;2.53;;
8694;SDS011;65580;49.446;6.854;2023-08-20T20:22:26;7.60;;;2.35;;
8694;SDS011;65580;49.446;6.854;2023-08-20T20:26:34;12.70;;;2.78;;
8694;SDS011;65580;49.446;6.854;2023-08-20T20:30:39;4.47;;;2.17;;
8694;SDS011;65580;49.446;6.854;2023-08-20T20:34:43;6.70;;;2.33;;
8694;SDS011;65580;49.446;6.854;2023-08-20T20:38:46;6.68;;;2.70;;
8694;SDS011;65580;49.446;6.854;2023-08-20T20:42:51;8.90;;;2.45;;
8694;SDS011;65580;49.446;6.854;2023-08-20T20:46:57;8.55;;;2.70;;
8694;SDS011;65580;49.446;6.854;2023-08-20T20:51:00;11.32;;;3.20;;
8694;SDS011;65580;49.446;6.854;2023-08-20T20:55:05;6.50;;;2.45;;
8694;SDS011;65580;49.446;6.854;2023-08-20T20:59:16;7.00;;;2.60;;
8694;SDS011;65580;49.446;6.854;2023-08-20T21:03:22;8.77;;;2.92;;
8694;SDS011;65580;49.446;6.854;2023-08-20T21:07:25;8.40;;;2.63;;
8694;SDS011;65580;49.446;6.854;2023-08-20T21:15:31;8.82;;;3.05;;
8694;SDS011;65580;49.446;6.854;2023-08-20T21:19:37;7.18;;;2.60;;
8694;SDS011;65580;49.446;6.854;2023-08-20T21:24:18;6.63;;;3.05;;
8694;SDS011;65580;49.446;6.854;2023-08-20T21:32:24;7.72;;;2.78;;
8694;SDS011;65580;49.446;6.854;2023-08-20T21:36:29;7.45;;;2.60;;
8694;SDS011;65580;49.446;6.854;2023-08-20T21:40:32;11.05;;;4.18;;
8694;SDS011;65580;49.446;6.854;2023-08-20T21:44:36;8.48;;;3.53;;
8694;SDS011;65580;49.446;6.854;2023-08-20T21:48:39;7.05;;;2.80;;
8694;SDS011;65580;49.446;6.854;2023-08-20T21:52:43;6.47;;;2.88;;
8694;SDS011;65580;49.446;6.854;2023-08-20T21:56:48;7.13;;;2.83;;
8694;SDS011;65580;49.446;6.854;2023-08-20T22:00:51;5.10;;;2.40;;
8694;SDS011;65580;49.446;6.854;2023-08-20T22:05:09;6.90;;;2.60;;
8694;SDS011;65580;49.446;6.854;2023-08-20T22:09:14;6.60;;;2.90;;
8694;SDS011;65580;49.446;6.854;2023-08-20T22:13:17;7.28;;;3.28;;
8694;SDS011;65580;49.446;6.854;2023-08-20T22:17:19;6.25;;;2.70;;
8694;SDS011;65580;49.446;6.854;2023-08-20T22:21:22;5.60;;;2.92;;
8694;SDS011;65580;49.446;6.854;2023-08-20T22:29:29;4.65;;;2.60;;
8694;SDS011;65580;49.446;6.854;2023-08-20T22:33:32;5.53;;;2.63;;
8694;SDS011;65580;49.446;6.854;2023-08-20T22:37:35;5.00;;;2.67;;
8694;SDS011;65580;49.446;6.854;2023-08-20T22:41:39;6.85;;;2.47;;
8694;SDS011;65580;49.446;6.854;2023-08-20T22:45:43;10.35;;;3.88;;
8694;SDS011;65580;49.446;6.854;2023-08-20T22:49:46;5.57;;;2.50;;
8694;SDS011;65580;49.446;6.854;2023-08-20T22:53:49;9.25;;;4.25;;
8694;SDS011;65580;49.446;6.854;2023-08-20T23:01:56;8.00;;;2.88;;
8694;SDS011;65580;49.446;6.854;2023-08-20T23:05:59;7.00;;;2.53;;
8694;SDS011;65580;49.446;6.854;2023-08-20T23:10:02;9.35;;;2.75;;
8694;SDS011;65580;49.446;6.854;2023-08-20T23:14:06;5.55;;;2.70;;
8694;SDS011;65580;49.446;6.854;2023-08-20T23:18:09;6.60;;;2.60;;
8694;SDS011;65580;49.446;6.854;2023-08-20T23:22:12;6.22;;;2.67;;
8694;SDS011;65580;49.446;6.854;2023-08-20T23:26:18;7.15;;;2.75;;
8694;SDS011;65580;49.446;6.854;2023-08-20T23:30:22;5.97;;;2.60;;
8694;SDS011;65580;49.446;6.854;2023-08-20T23:34:25;8.60;;;3.03;;
8694;SDS011;65580;49.446;6.854;2023-08-20T23:38:28;9.50;;;3.40;;
8694;SDS011;65580;49.446;6.854;2023-08-20T23:42:39;8.13;;;3.10;;
8694;SDS011;65580;49.446;6.854;2023-08-20T23:46:43;9.85;;;2.80;;
8694;SDS011;65580;49.446;6.854;2023-08-20T23:50:49;5.88;;;2.72;;
8694;SDS011;65580;49.446;6.854;2023-08-20T23:54:52;9.52;;;2.90;;
8694;SDS011;65580;49.446;6.854;2023-08-20T23:58:54;9.55;;;3.95;;
